Time;durP1;ratioP1;P1;durP2;ratioP2;P2;SDS_P1;SDS_P2;PMS_P1;PMS_P2;Temp;Humidity;BMP_temperature;BMP_pressure;BME280_temperature;BME280_humidity;BME280_pressure;Samples;Min_cycle;Max_cycle;Signal;HPM_P1;HPM_P2
2023/06/04 00:00:41;;;;;;;9.83;5.30;;;;;;;;;;4957019;28;20249;-84
2023/06/04 00:03:08;;;;;;;8.83;5.40;;;;;;;;;;4956498;28;20231;-86
2023/06/04 00:05:35;;;;;;;9.47;5.73;;;;;;;;;;4957062;28;20294;-85
2023/06/04 00:08:03;;;;;;;9.63;5.47;;;;;;;;;;4957052;28;20289;-85
2023/06/04 00:10:30;;;;;;;10.30;5.30;;;;;;;;;;4956964;28;20632;-85
2023/06/04 00:12:58;;;;;;;9.73;5.70;;;;;;;;;;4957052;28;20199;-86
2023/06/04 00:15:25;;;;;;;8.73;5.20;;;;;;;;;;4956771;28;20703;-85
2023/06/04 00:17:56;;;;;;;11.63;5.60;;;;;;;;;;4956941;29;20238;-85
2023/06/04 00:20:23;;;;;;;12.37;5.60;;;;;;;;;;4957050;29;20621;-85
2023/06/04 00:22:50;;;;;;;11.27;6.00;;;;;;;;;;4956419;28;20239;-85
2023/06/04 00:25:18;;;;;;;8.40;5.43;;;;;;;;;;4956840;28;20286;-85
2023/06/04 00:27:45;;;;;;;9.47;5.13;;;;;;;;;;4956719;29;20225;-85
2023/06/04 00:30:13;;;;;;;8.87;5.87;;;;;;;;;;4956859;29;20294;-84
2023/06/04 00:32:40;;;;;;;9.20;4.70;;;;;;;;;;4956408;28;20286;-85
2023/06/04 00:35:10;;;;;;;9.47;5.40;;;;;;;;;;4956726;29;20596;-84
2023/06/04 00:37:37;;;;;;;9.80;4.90;;;;;;;;;;4956834;29;20246;-85
2023/06/04 00:40:05;;;;;;;11.80;5.47;;;;;;;;;;4956591;28;20685;-85
2023/06/04 00:42:32;;;;;;;8.43;5.23;;;;;;;;;;4956172;29;20254;-85
2023/06/04 00:44:59;;;;;;;11.57;5.10;;;;;;;;;;4956260;28;20683;-85
2023/06/04 00:47:27;;;;;;;11.00;5.40;;;;;;;;;;4955694;28;20597;-85
2023/06/04 00:49:57;;;;;;;9.07;4.97;;;;;;;;;;4956212;29;20187;-83
2023/06/04 00:52:27;;;;;;;8.83;5.30;;;;;;;;;;4955964;28;20695;-85
2023/06/04 00:54:54;;;;;;;10.63;4.77;;;;;;;;;;4956555;29;20203;-85
2023/06/04 00:57:22;;;;;;;8.17;3.87;;;;;;;;;;4955538;28;20227;-85
2023/06/04 00:59:50;;;;;;;7.53;4.67;;;;;;;;;;4955812;28;20707;-84
2023/06/04 01:02:19;;;;;;;12.67;4.77;;;;;;;;;;4955714;28;20718;-84
2023/06/04 01:04:50;;;;;;;7.40;4.60;;;;;;;;;;4955945;28;20214;-85
2023/06/04 01:07:17;;;;;;;8.90;5.20;;;;;;;;;;4955793;29;20238;-85
2023/06/04 01:09:46;;;;;;;8.77;4.67;;;;;;;;;;4955849;29;20286;-84
2023/06/04 01:12:14;;;;;;;13.03;5.17;;;;;;;;;;4955721;28;20286;-85
2023/06/04 01:14:42;;;;;;;8.80;4.23;;;;;;;;;;4955160;28;20302;-85
2023/06/04 01:17:13;;;;;;;6.77;4.27;;;;;;;;;;4955985;29;20203;-85
2023/06/04 01:20:05;;;;;;;8.27;4.50;;;;;;;;;;4955609;29;20234;-85
2023/06/04 01:22:37;;;;;;;8.33;4.20;;;;;;;;;;4955612;28;20231;-84
2023/06/04 01:25:09;;;;;;;7.30;4.07;;;;;;;;;;4955631;28;20290;-84
2023/06/04 01:27:36;;;;;;;6.50;4.13;;;;;;;;;;4955412;28;20207;-84
2023/06/04 01:30:04;;;;;;;8.17;4.23;;;;;;;;;;4954610;28;20234;-84
2023/06/04 01:32:31;;;;;;;8.70;4.30;;;;;;;;;;4955102;28;20282;-85
2023/06/04 01:34:59;;;;;;;9.30;4.17;;;;;;;;;;4955358;29;20206;-84
2023/06/04 01:37:26;;;;;;;8.17;4.00;;;;;;;;;;4954783;28;20218;-84
2023/06/04 01:39:53;;;;;;;8.87;4.10;;;;;;;;;;4954830;28;20238;-84
2023/06/04 01:42:22;;;;;;;9.57;4.10;;;;;;;;;;4955387;28;20206;-84
2023/06/04 01:44:49;;;;;;;10.27;4.00;;;;;;;;;;4954538;29;20664;-84
2023/06/04 01:47:16;;;;;;;7.43;3.90;;;;;;;;;;4954867;29;20858;-84
2023/06/04 01:49:43;;;;;;;6.97;3.73;;;;;;;;;;4955535;29;20202;-85
2023/06/04 01:52:11;;;;;;;7.30;3.40;;;;;;;;;;4955293;29;20200;-85
2023/06/04 01:54:40;;;;;;;6.33;3.77;;;;;;;;;;4955001;29;20199;-84
2023/06/04 01:57:09;;;;;;;10.20;4.17;;;;;;;;;;4955161;28;20235;-85
2023/06/04 01:59:38;;;;;;;7.03;3.60;;;;;;;;;;4952783;28;20230;-85
2023/06/04 02:02:06;;;;;;;7.83;3.63;;;;;;;;;;4954768;29;20203;-85
2023/06/04 02:04:36;;;;;;;10.13;3.70;;;;;;;;;;4954738;28;20223;-85
2023/06/04 02:07:03;;;;;;;9.37;3.67;;;;;;;;;;4954864;28;20262;-85
2023/06/04 02:09:30;;;;;;;6.07;3.63;;;;;;;;;;4953706;28;20282;-84
2023/06/04 02:11:57;;;;;;;7.40;3.80;;;;;;;;;;4954422;28;20243;-84
2023/06/04 02:14:24;;;;;;;4.83;3.30;;;;;;;;;;4949567;29;20217;-85
2023/06/04 02:16:53;;;;;;;8.53;3.60;;;;;;;;;;4935186;29;20207;-85
2023/06/04 02:19:21;;;;;;;7.83;3.87;;;;;;;;;;4934912;29;20231;-84
2023/06/04 02:21:48;;;;;;;7.77;3.60;;;;;;;;;;4935106;29;20283;-84
2023/06/04 02:24:15;;;;;;;6.90;3.40;;;;;;;;;;4934799;29;20290;-84
2023/06/04 02:26:42;;;;;;;7.07;3.33;;;;;;;;;;4935041;29;20239;-85
2023/06/04 02:29:10;;;;;;;7.93;3.57;;;;;;;;;;4934814;29;20200;-84
2023/06/04 02:31:37;;;;;;;6.17;3.37;;;;;;;;;;4934698;28;20188;-82
2023/06/04 02:34:05;;;;;;;8.53;3.57;;;;;;;;;;4934651;29;20242;-83
2023/06/04 02:36:32;;;;;;;7.97;3.87;;;;;;;;;;4934629;29;20290;-84
2023/06/04 02:39:01;;;;;;;5.77;3.43;;;;;;;;;;4935254;29;20294;-84
2023/06/04 02:41:28;;;;;;;6.87;3.57;;;;;;;;;;4934217;29;20207;-84
2023/06/04 02:43:55;;;;;;;8.00;3.70;;;;;;;;;;4934651;29;20278;-84
2023/06/04 02:46:22;;;;;;;5.13;3.07;;;;;;;;;;4934958;29;20290;-84
2023/06/04 02:48:49;;;;;;;8.40;3.30;;;;;;;;;;4934604;29;20388;-82
2023/06/04 02:51:18;;;;;;;6.97;3.27;;;;;;;;;;4934533;29;20238;-83
2023/06/04 02:53:45;;;;;;;6.17;3.17;;;;;;;;;;4934497;29;20246;-84
2023/06/04 02:56:12;;;;;;;7.97;3.30;;;;;;;;;;4934069;29;20243;-84
2023/06/04 02:58:49;;;;;;;4.97;2.90;;;;;;;;;;4934659;29;20203;-83
2023/06/04 03:01:19;;;;;;;9.30;3.73;;;;;;;;;;4934407;29;20231;-85
2023/06/04 03:03:50;;;;;;;6.37;3.07;;;;;;;;;;4934328;29;20200;-84
2023/06/04 03:06:20;;;;;;;6.60;3.40;;;;;;;;;;4934803;29;20231;-83
2023/06/04 03:08:47;;;;;;;6.97;3.27;;;;;;;;;;4934758;29;20291;-83
2023/06/04 03:11:14;;;;;;;7.43;3.20;;;;;;;;;;4933774;29;20200;-83
2023/06/04 03:13:42;;;;;;;8.83;3.50;;;;;;;;;;4934776;29;20223;-83
2023/06/04 03:16:09;;;;;;;7.70;4.00;;;;;;;;;;4952816;28;20222;-84
2023/06/04 03:18:37;;;;;;;8.27;3.37;;;;;;;;;;4953394;28;20263;-84
2023/06/04 03:21:04;;;;;;;7.27;3.37;;;;;;;;;;4954173;28;20246;-83
2023/06/04 03:23:33;;;;;;;5.17;3.20;;;;;;;;;;4957553;28;20314;-84
2023/06/04 03:26:01;;;;;;;5.13;3.20;;;;;;;;;;4957027;29;20191;-82
2023/06/04 03:28:28;;;;;;;5.90;3.20;;;;;;;;;;4957268;29;20219;-84
2023/06/04 03:30:55;;;;;;;6.07;3.03;;;;;;;;;;4957375;28;20242;-84
2023/06/04 03:33:22;;;;;;;5.40;2.97;;;;;;;;;;4957198;29;20294;-83
2023/06/04 03:35:49;;;;;;;6.30;3.27;;;;;;;;;;4957226;28;20196;-84
2023/06/04 03:38:16;;;;;;;4.97;3.10;;;;;;;;;;4957347;29;20286;-83
2023/06/04 03:40:45;;;;;;;4.97;3.13;;;;;;;;;;4956755;28;20329;-84
2023/06/04 03:43:12;;;;;;;8.43;3.40;;;;;;;;;;4956861;28;20660;-84
2023/06/04 03:45:39;;;;;;;6.03;3.33;;;;;;;;;;4957138;29;20747;-84
2023/06/04 03:48:07;;;;;;;5.00;3.03;;;;;;;;;;4956597;28;20735;-83
2023/06/04 03:50:35;;;;;;;7.23;3.40;;;;;;;;;;4957027;28;20246;-84
2023/06/04 03:53:04;;;;;;;6.00;3.10;;;;;;;;;;4957245;28;20544;-84
2023/06/04 03:55:32;;;;;;;8.57;3.63;;;;;;;;;;4956570;28;20230;-84
2023/06/04 03:58:01;;;;;;;6.93;3.17;;;;;;;;;;4956792;28;20217;-83
2023/06/04 04:00:28;;;;;;;6.10;2.87;;;;;;;;;;4956809;29;20318;-83
2023/06/04 04:02:56;;;;;;;4.90;3.10;;;;;;;;;;4956523;29;20294;-83
2023/06/04 04:05:23;;;;;;;7.40;3.17;;;;;;;;;;4956233;29;20250;-84
2023/06/04 04:07:51;;;;;;;7.93;3.23;;;;;;;;;;4956812;29;20298;-83
2023/06/04 04:10:18;;;;;;;7.17;3.63;;;;;;;;;;4955918;29;20203;-83
2023/06/04 04:12:45;;;;;;;5.80;3.10;;;;;;;;;;4956422;28;20286;-83
2023/06/04 04:15:14;;;;;;;7.27;3.20;;;;;;;;;;4956613;28;20294;-83
2023/06/04 04:17:41;;;;;;;5.40;3.07;;;;;;;;;;4955898;29;20223;-83
2023/06/04 04:20:08;;;;;;;6.27;3.10;;;;;;;;;;4955845;29;20796;-84
2023/06/04 04:22:35;;;;;;;10.43;3.77;;;;;;;;;;4955816;29;20242;-83
2023/06/04 04:25:03;;;;;;;7.40;3.30;;;;;;;;;;4955572;28;20206;-82
2023/06/04 04:27:31;;;;;;;6.20;3.33;;;;;;;;;;4956004;28;20206;-83
2023/06/04 04:30:00;;;;;;;5.03;3.13;;;;;;;;;;4955940;29;20574;-83
2023/06/04 04:32:28;;;;;;;6.03;3.33;;;;;;;;;;4955214;28;20266;-83
2023/06/04 04:34:57;;;;;;;5.57;3.20;;;;;;;;;;4955885;29;20230;-83
2023/06/04 04:37:24;;;;;;;7.77;3.10;;;;;;;;;;4956165;28;20221;-85
2023/06/04 04:39:52;;;;;;;5.90;3.67;;;;;;;;;;4955539;28;20204;-83
2023/06/04 04:42:19;;;;;;;5.17;3.00;;;;;;;;;;4955670;28;20218;-85
2023/06/04 04:44:48;;;;;;;7.10;3.23;;;;;;;;;;4955639;28;20222;-84
2023/06/04 04:47:16;;;;;;;5.53;3.37;;;;;;;;;;4955776;28;20199;-84
2023/06/04 04:49:45;;;;;;;6.63;3.03;;;;;;;;;;4956188;28;20231;-82
2023/06/04 04:52:12;;;;;;;5.67;2.60;;;;;;;;;;4955150;29;20295;-84
2023/06/04 04:54:39;;;;;;;8.43;3.10;;;;;;;;;;4955586;28;20298;-86
2023/06/04 04:57:07;;;;;;;6.20;3.13;;;;;;;;;;4955785;29;20330;-85
2023/06/04 04:59:34;;;;;;;7.47;3.53;;;;;;;;;;4955308;28;20203;-85
2023/06/04 05:02:02;;;;;;;9.20;3.13;;;;;;;;;;4955434;29;20238;-84
2023/06/04 05:04:29;;;;;;;7.60;3.10;;;;;;;;;;4955337;28;20199;-85
2023/06/04 05:06:57;;;;;;;8.20;3.10;;;;;;;;;;4955218;28;20282;-84
2023/06/04 05:09:25;;;;;;;4.60;2.90;;;;;;;;;;4970579;28;20289;-85
2023/06/04 05:11:52;;;;;;;4.53;3.00;;;;;;;;;;4974567;28;20234;-85
2023/06/04 05:14:19;;;;;;;6.13;2.77;;;;;;;;;;4970903;28;20239;-85
2023/06/04 05:16:48;;;;;;;5.97;3.20;;;;;;;;;;4955246;28;20230;-85
2023/06/04 05:19:15;;;;;;;3.80;3.10;;;;;;;;;;4955362;29;20239;-84
2023/06/04 05:21:43;;;;;;;7.73;3.30;;;;;;;;;;4954500;29;20573;-85
2023/06/04 05:24:12;;;;;;;5.30;2.80;;;;;;;;;;4955380;28;20273;-83
2023/06/04 05:26:40;;;;;;;6.00;2.60;;;;;;;;;;4955179;29;20294;-85
2023/06/04 05:29:07;;;;;;;4.80;2.73;;;;;;;;;;4955081;28;20199;-84
2023/06/04 05:31:34;;;;;;;5.63;2.40;;;;;;;;;;4954902;29;20290;-85
2023/06/04 05:34:01;;;;;;;4.57;2.60;;;;;;;;;;4955557;29;20294;-86
2023/06/04 05:36:29;;;;;;;3.80;2.40;;;;;;;;;;4954416;29;20759;-86
2023/06/04 05:38:56;;;;;;;6.73;2.90;;;;;;;;;;4955571;28;20644;-86
2023/06/04 05:41:25;;;;;;;6.63;2.90;;;;;;;;;;4955021;28;20230;-86
2023/06/04 05:43:52;;;;;;;7.10;2.77;;;;;;;;;;4955363;28;20563;-86
2023/06/04 05:46:21;;;;;;;5.53;2.60;;;;;;;;;;4955429;29;20207;-86
2023/06/04 05:48:48;;;;;;;6.20;2.40;;;;;;;;;;4955149;28;20207;-86
2023/06/04 05:51:15;;;;;;;6.93;2.60;;;;;;;;;;4954649;28;20290;-86
2023/06/04 05:53:43;;;;;;;6.17;2.47;;;;;;;;;;4955089;28;20678;-86
2023/06/04 05:56:10;;;;;;;7.47;2.80;;;;;;;;;;4955374;29;20249;-86
2023/06/04 05:58:38;;;;;;;4.80;2.40;;;;;;;;;;4955621;29;20254;-87
2023/06/04 06:01:06;;;;;;;3.90;2.33;;;;;;;;;;4955444;29;20313;-87
2023/06/04 06:03:33;;;;;;;4.63;2.60;;;;;;;;;;4955720;29;20192;-88
2023/06/04 06:06:01;;;;;;;5.38;2.42;;;;;;;;;;4954808;28;20706;-87
2023/06/04 06:08:28;;;;;;;4.72;2.45;;;;;;;;;;4955798;28;20187;-89
2023/06/04 06:10:55;;;;;;;5.38;2.47;;;;;;;;;;4955618;29;20294;-88
2023/06/04 06:13:23;;;;;;;3.75;2.40;;;;;;;;;;4955754;29;20294;-89
2023/06/04 06:15:52;;;;;;;5.20;2.10;;;;;;;;;;4970965;28;20201;-88
2023/06/04 06:18:20;;;;;;;6.32;2.22;;;;;;;;;;4975158;28;20198;-89
2023/06/04 06:20:47;;;;;;;7.13;2.42;;;;;;;;;;4974343;28;20226;-90
2023/06/04 06:23:16;;;;;;;5.20;2.60;;;;;;;;;;4975092;28;20830;-89
2023/06/04 06:25:45;;;;;;;5.72;2.50;;;;;;;;;;4974916;28;20194;-87
2023/06/04 06:28:13;;;;;;;5.07;2.38;;;;;;;;;;4975117;28;20240;-89
2023/06/04 06:30:40;;;;;;;3.47;2.30;;;;;;;;;;4956374;28;20297;-89
2023/06/04 06:33:08;;;;;;;4.22;2.17;;;;;;;;;;4954758;29;20286;-90
2023/06/04 06:35:36;;;;;;;3.75;2.20;;;;;;;;;;4954596;29;20195;-90
2023/06/04 06:38:03;;;;;;;3.88;2.30;;;;;;;;;;4955437;29;20556;-91
2023/06/04 06:40:30;;;;;;;5.65;1.92;;;;;;;;;;4955363;28;20203;-91
2023/06/04 06:42:58;;;;;;;5.40;2.53;;;;;;;;;;4955811;28;20195;-91
2023/06/04 06:45:25;;;;;;;4.03;2.33;;;;;;;;;;4955996;29;20278;-91
2023/06/04 06:47:52;;;;;;;3.53;1.92;;;;;;;;;;4955730;29;20258;-92
2023/06/04 06:50:20;;;;;;;5.28;2.25;;;;;;;;;;4956848;29;20731;-95
2023/06/04 06:52:48;;;;;;;4.43;2.20;;;;;;;;;;4959312;29;20211;-95
2023/06/04 06:55:15;;;;;;;6.68;2.22;;;;;;;;;;4955640;28;20290;-92
2023/06/04 06:57:42;;;;;;;8.02;2.28;;;;;;;;;;4955079;29;20282;-93
2023/06/04 07:00:10;;;;;;;5.30;2.35;;;;;;;;;;4955751;29;20230;-90
2023/06/04 07:02:37;;;;;;;4.78;2.17;;;;;;;;;;4955717;29;20266;-76
2023/06/04 07:05:05;;;;;;;7.25;2.60;;;;;;;;;;4955496;29;20285;-92
2023/06/04 07:07:33;;;;;;;5.75;2.22;;;;;;;;;;4955706;28;20251;-93
2023/06/04 07:10:00;;;;;;;7.30;2.45;;;;;;;;;;4956334;29;20238;-94
2023/06/04 07:12:27;;;;;;;3.35;1.90;;;;;;;;;;4955788;29;20235;-91
2023/06/04 07:14:55;;;;;;;3.70;2.28;;;;;;;;;;4955626;28;20203;-91
2023/06/04 07:17:22;;;;;;;4.97;2.50;;;;;;;;;;4955539;28;20191;-91
2023/06/04 07:19:50;;;;;;;5.43;2.30;;;;;;;;;;4955581;29;20625;-91
2023/06/04 07:22:17;;;;;;;3.13;2.22;;;;;;;;;;4955149;29;20298;-90
2023/06/04 07:24:45;;;;;;;4.80;2.40;;;;;;;;;;4955597;29;20195;-91
2023/06/04 07:27:13;;;;;;;4.88;2.10;;;;;;;;;;4955952;29;20215;-92
2023/06/04 07:29:40;;;;;;;3.92;2.42;;;;;;;;;;4956010;29;20215;-91
2023/06/04 07:32:08;;;;;;;5.53;2.47;;;;;;;;;;4964965;28;20202;-91
2023/06/04 07:34:36;;;;;;;5.28;2.70;;;;;;;;;;4966041;28;20203;-92
2023/06/04 07:37:04;;;;;;;4.90;2.40;;;;;;;;;;4975083;28;20580;-92
2023/06/04 07:39:31;;;;;;;3.58;2.20;;;;;;;;;;4973855;28;20226;-96
2023/06/04 07:41:59;;;;;;;3.22;2.33;;;;;;;;;;4975848;28;20308;-95
2023/06/04 07:44:27;;;;;;;4.30;2.50;;;;;;;;;;4975419;28;20668;-96
2023/06/04 07:46:54;;;;;;;4.80;2.55;;;;;;;;;;4975603;28;20274;-95
2023/06/04 07:49:21;;;;;;;3.17;2.17;;;;;;;;;;4967237;28;20242;-96
2023/06/04 07:51:48;;;;;;;5.45;2.38;;;;;;;;;;4962993;29;20259;-96
2023/06/04 07:54:16;;;;;;;3.70;2.20;;;;;;;;;;4967001;29;20231;-96
2023/06/04 07:56:43;;;;;;;3.42;2.40;;;;;;;;;;4964375;29;20356;-96
2023/06/04 07:59:12;;;;;;;4.55;2.65;;;;;;;;;;4961935;28;20198;-94
2023/06/04 08:01:39;;;;;;;4.15;2.55;;;;;;;;;;4957560;29;20234;-96
2023/06/04 08:04:06;;;;;;;4.15;2.38;;;;;;;;;;4963241;29;20195;-96
2023/06/04 08:06:35;;;;;;;3.40;2.17;;;;;;;;;;4973053;28;20199;-96
2023/06/04 08:09:03;;;;;;;4.90;2.50;;;;;;;;;;4979915;28;20192;-96
2023/06/04 08:11:30;;;;;;;4.45;2.38;;;;;;;;;;4976354;28;20184;-96
2023/06/04 08:13:58;;;;;;;4.65;2.95;;;;;;;;;;5767667;23;20255;-96
2023/06/04 08:16:27;;;;;;;3.90;2.70;;;;;;;;;;5396443;23;20239;-96
2023/06/04 08:18:54;;;;;;;5.10;2.63;;;;;;;;;;4960584;28;20210;-83
2023/06/04 08:21:27;;;;;;;4.25;2.47;;;;;;;;;;4955582;28;20676;-81
2023/06/04 08:23:54;;;;;;;4.70;2.38;;;;;;;;;;4956188;28;20286;-82
2023/06/04 08:26:21;;;;;;;4.97;2.75;;;;;;;;;;4955906;28;20230;-82
2023/06/04 08:28:49;;;;;;;3.30;2.25;;;;;;;;;;4955669;28;20199;-83
2023/06/04 08:31:16;;;;;;;8.75;2.78;;;;;;;;;;4954947;28;20210;-83
2023/06/04 08:33:46;;;;;;;6.57;2.88;;;;;;;;;;4955520;28;20270;-81
2023/06/04 08:36:13;;;;;;;5.57;2.72;;;;;;;;;;4955662;28;20203;-80
2023/06/04 08:38:41;;;;;;;3.58;2.75;;;;;;;;;;4954955;28;20223;-80
2023/06/04 08:41:11;;;;;;;4.28;2.70;;;;;;;;;;4957260;28;20293;-81
2023/06/04 08:43:39;;;;;;;5.15;2.70;;;;;;;;;;4950734;28;20278;-80
2023/06/04 08:46:08;;;;;;;5.78;2.85;;;;;;;;;;4945238;28;20573;-80
2023/06/04 08:48:36;;;;;;;3.83;3.00;;;;;;;;;;4946904;28;20199;-79
2023/06/04 08:51:07;;;;;;;5.45;2.60;;;;;;;;;;4945685;29;20196;-81
2023/06/04 08:53:34;;;;;;;3.28;2.70;;;;;;;;;;4944469;29;20744;-81
2023/06/04 08:56:01;;;;;;;3.88;2.53;;;;;;;;;;4944681;29;20915;-81
2023/06/04 08:58:32;;;;;;;5.57;2.58;;;;;;;;;;4945760;29;20283;-81
2023/06/04 09:01:00;;;;;;;4.82;2.53;;;;;;;;;;4937998;29;20720;-82
2023/06/04 09:03:28;;;;;;;4.32;2.83;;;;;;;;;;4935789;29;20256;-81
2023/06/04 09:05:56;;;;;;;3.92;2.47;;;;;;;;;;4936079;29;20287;-81
2023/06/04 09:08:26;;;;;;;3.53;2.58;;;;;;;;;;4935952;29;20649;-81
2023/06/04 09:10:55;;;;;;;6.28;2.63;;;;;;;;;;4935948;29;21027;-81
2023/06/04 09:13:23;;;;;;;3.30;2.67;;;;;;;;;;4935487;29;20240;-80
2023/06/04 09:16:00;;;;;;;4.15;2.63;;;;;;;;;;4951819;28;20322;-80
2023/06/04 09:18:27;;;;;;;5.47;2.47;;;;;;;;;;4943307;29;20214;-79
2023/06/04 09:21:01;;;;;;;5.03;2.80;;;;;;;;;;4936466;29;20235;-80
2023/06/04 09:23:31;;;;;;;4.50;2.83;;;;;;;;;;4955292;28;20265;-80
2023/06/04 09:26:07;;;;;;;3.92;2.97;;;;;;;;;;4955017;28;20657;-80
2023/06/04 09:28:34;;;;;;;6.65;2.83;;;;;;;;;;4949431;28;20203;-81
2023/06/04 09:31:03;;;;;;;7.18;2.92;;;;;;;;;;4941589;29;20207;-82
2023/06/04 09:33:30;;;;;;;3.67;2.90;;;;;;;;;;4942558;28;20208;-81
2023/06/04 09:35:57;;;;;;;4.30;2.92;;;;;;;;;;4946722;29;20222;-81
2023/06/04 09:38:24;;;;;;;3.90;3.38;;;;;;;;;;4935477;29;20298;-80
2023/06/04 09:40:53;;;;;;;4.70;3.17;;;;;;;;;;4938246;29;20306;-79
2023/06/04 09:43:23;;;;;;;5.63;3.20;;;;;;;;;;4948388;28;20235;-80
2023/06/04 09:45:51;;;;;;;4.88;3.45;;;;;;;;;;4939500;28;20207;-80
2023/06/04 09:48:22;;;;;;;5.15;3.15;;;;;;;;;;4935230;29;20204;-80
2023/06/04 09:50:49;;;;;;;4.22;3.25;;;;;;;;;;4935362;29;20891;-79
2023/06/04 09:53:17;;;;;;;4.95;3.00;;;;;;;;;;4935364;29;20206;-79
2023/06/04 09:55:45;;;;;;;4.93;3.10;;;;;;;;;;4935169;29;20263;-80
2023/06/04 09:58:15;;;;;;;5.25;3.70;;;;;;;;;;4936646;28;20905;-79
2023/06/04 10:00:43;;;;;;;7.03;3.30;;;;;;;;;;4956412;28;20213;-81
2023/06/04 10:03:13;;;;;;;6.18;3.70;;;;;;;;;;4969762;28;20309;-80
2023/06/04 10:05:41;;;;;;;5.07;3.45;;;;;;;;;;4960108;28;20283;-81
2023/06/04 10:08:11;;;;;;;6.25;3.60;;;;;;;;;;4962341;28;20202;-82
2023/06/04 10:10:38;;;;;;;4.32;3.05;;;;;;;;;;4963869;28;20285;-81
2023/06/04 10:13:07;;;;;;;5.20;3.42;;;;;;;;;;4959457;28;20211;-81
2023/06/04 10:15:37;;;;;;;4.82;3.38;;;;;;;;;;4959962;28;20222;-80
2023/06/04 10:18:04;;;;;;;6.72;3.70;;;;;;;;;;4961134;28;20205;-81
2023/06/04 10:20:32;;;;;;;5.90;3.35;;;;;;;;;;4960842;28;20605;-80
2023/06/04 10:23:00;;;;;;;9.32;3.50;;;;;;;;;;4972152;28;20276;-81
2023/06/04 10:25:28;;;;;;;5.30;3.60;;;;;;;;;;4957905;28;20290;-81
2023/06/04 10:27:55;;;;;;;5.13;3.35;;;;;;;;;;4966127;28;20206;-80
2023/06/04 10:30:22;;;;;;;4.30;3.55;;;;;;;;;;4966605;28;20196;-81
2023/06/04 10:32:51;;;;;;;6.13;3.55;;;;;;;;;;4967119;28;20301;-81
2023/06/04 10:35:18;;;;;;;5.32;3.80;;;;;;;;;;4970829;28;20207;-82
2023/06/04 10:37:47;;;;;;;5.95;3.72;;;;;;;;;;4969341;28;20203;-82
2023/06/04 10:40:15;;;;;;;5.43;4.35;;;;;;;;;;4957357;28;20190;-82
2023/06/04 10:42:43;;;;;;;6.03;4.03;;;;;;;;;;4966466;28;20313;-82
2023/06/04 10:45:11;;;;;;;6.65;3.85;;;;;;;;;;4955940;28;20199;-81
2023/06/04 10:47:40;;;;;;;8.48;5.00;;;;;;;;;;4960754;28;20234;-85
2023/06/04 10:50:11;;;;;;;7.85;4.97;;;;;;;;;;4947029;28;20207;-82
2023/06/04 10:52:39;;;;;;;5.85;4.30;;;;;;;;;;4953537;28;20200;-82
2023/06/04 10:55:08;;;;;;;5.05;4.47;;;;;;;;;;4953895;28;20203;-82
2023/06/04 10:57:35;;;;;;;6.05;4.05;;;;;;;;;;4964850;28;20293;-83
2023/06/04 11:00:05;;;;;;;8.00;5.38;;;;;;;;;;4964007;28;20617;-83
2023/06/04 11:02:32;;;;;;;8.38;5.55;;;;;;;;;;4969645;28;20218;-83
2023/06/04 11:05:03;;;;;;;9.88;4.80;;;;;;;;;;4972700;28;20290;-82
2023/06/04 11:07:42;;;;;;;8.60;5.00;;;;;;;;;;4972285;28;20201;-82
2023/06/04 11:10:11;;;;;;;6.60;4.47;;;;;;;;;;4972038;28;20296;-82
2023/06/04 11:12:44;;;;;;;5.22;4.13;;;;;;;;;;4963230;28;20207;-81
2023/06/04 11:15:12;;;;;;;4.88;3.83;;;;;;;;;;4961748;28;20388;-81
2023/06/04 11:17:39;;;;;;;4.85;3.70;;;;;;;;;;4972436;28;20199;-81
2023/06/04 11:20:17;;;;;;;4.65;3.85;;;;;;;;;;4972078;28;20199;-80
2023/06/04 11:22:51;;;;;;;5.22;4.03;;;;;;;;;;4972526;28;20233;-81
2023/06/04 11:25:19;;;;;;;5.00;4.47;;;;;;;;;;4971352;28;20632;-81
2023/06/04 11:27:46;;;;;;;7.60;4.10;;;;;;;;;;4972618;28;20224;-81
2023/06/04 11:30:14;;;;;;;4.88;4.15;;;;;;;;;;4972171;28;20654;-81
2023/06/04 11:32:41;;;;;;;9.88;4.35;;;;;;;;;;4972213;28;20195;-82
2023/06/04 11:35:10;;;;;;;6.65;4.57;;;;;;;;;;4972147;28;20204;-82
2023/06/04 11:37:38;;;;;;;6.38;3.95;;;;;;;;;;4966599;28;20297;-81
2023/06/04 11:40:17;;;;;;;6.72;4.50;;;;;;;;;;4971787;28;20208;-82
2023/06/04 11:42:44;;;;;;;4.72;3.90;;;;;;;;;;4973872;28;20230;-83
2023/06/04 11:45:11;;;;;;;4.85;4.25;;;;;;;;;;4964047;28;20214;-80
2023/06/04 11:47:39;;;;;;;6.60;4.10;;;;;;;;;;4956301;28;20299;-80
2023/06/04 11:50:06;;;;;;;6.13;3.78;;;;;;;;;;4954914;28;22477;-79
2023/06/04 11:52:35;;;;;;;7.82;4.00;;;;;;;;;;4952666;28;20295;-79
2023/06/04 11:55:02;;;;;;;4.85;4.30;;;;;;;;;;4951602;28;20289;-79
2023/06/04 11:57:31;;;;;;;6.18;4.43;;;;;;;;;;4954320;28;20219;-78
2023/06/04 11:59:59;;;;;;;4.47;4.07;;;;;;;;;;4948630;28;20203;-79
2023/06/04 12:02:26;;;;;;;8.45;4.50;;;;;;;;;;4945858;29;20276;-79
2023/06/04 12:04:53;;;;;;;5.57;3.80;;;;;;;;;;4947317;29;20228;-78
2023/06/04 12:07:24;;;;;;;5.68;4.20;;;;;;;;;;4945393;29;20234;-78
2023/06/04 12:09:51;;;;;;;4.60;4.07;;;;;;;;;;4947000;29;20203;-78
2023/06/04 12:12:24;;;;;;;6.18;4.10;;;;;;;;;;4947584;29;20286;-79
2023/06/04 12:14:59;;;;;;;5.18;4.05;;;;;;;;;;4947158;29;20219;-79
2023/06/04 12:17:26;;;;;;;6.40;4.50;;;;;;;;;;4945315;29;20321;-78
2023/06/04 12:19:54;;;;;;;4.80;4.30;;;;;;;;;;4946313;29;20249;-80
2023/06/04 12:22:21;;;;;;;5.80;4.03;;;;;;;;;;4940504;29;20747;-79
2023/06/04 12:24:52;;;;;;;6.25;4.50;;;;;;;;;;4946168;29;20283;-78
2023/06/04 12:27:21;;;;;;;6.10;4.90;;;;;;;;;;4945354;29;20664;-80
2023/06/04 12:29:55;;;;;;;7.05;4.93;;;;;;;;;;4945307;28;20258;-81
2023/06/04 12:32:24;;;;;;;8.10;5.10;;;;;;;;;;4945656;29;20230;-80
2023/06/04 12:34:51;;;;;;;7.20;5.03;;;;;;;;;;4944934;29;20345;-85
2023/06/04 12:37:18;;;;;;;5.22;4.55;;;;;;;;;;4945209;29;20327;-81
2023/06/04 12:39:46;;;;;;;5.50;4.68;;;;;;;;;;4950930;28;20211;-83
2023/06/04 12:42:13;;;;;;;8.07;4.88;;;;;;;;;;4947005;29;20245;-82
2023/06/04 12:44:41;;;;;;;4.97;4.47;;;;;;;;;;4946097;29;20278;-82
2023/06/04 12:47:08;;;;;;;10.93;9.18;;;;;;;;;;4946492;29;20230;-80
2023/06/04 12:49:37;;;;;;;6.38;4.97;;;;;;;;;;4942440;28;20294;-79
2023/06/04 12:52:04;;;;;;;6.65;4.78;;;;;;;;;;4948912;28;20223;-80
2023/06/04 12:54:31;;;;;;;5.75;5.00;;;;;;;;;;4946491;28;20340;-81
2023/06/04 12:56:59;;;;;;;6.13;4.60;;;;;;;;;;4946034;28;20295;-78
2023/06/04 12:59:27;;;;;;;7.32;4.85;;;;;;;;;;4946749;28;20203;-80
2023/06/04 13:01:54;;;;;;;6.53;4.88;;;;;;;;;;4946093;29;20275;-79
2023/06/04 13:04:23;;;;;;;5.25;4.75;;;;;;;;;;4944915;28;20309;-80
2023/06/04 13:06:55;;;;;;;5.22;4.60;;;;;;;;;;4947749;28;20211;-78
2023/06/04 13:09:22;;;;;;;5.30;4.80;;;;;;;;;;4949171;28;20211;-79
2023/06/04 13:11:50;;;;;;;4.93;4.43;;;;;;;;;;4943146;28;20282;-80
2023/06/04 13:14:17;;;;;;;6.63;4.68;;;;;;;;;;4958174;28;20235;-81
2023/06/04 13:16:45;;;;;;;5.88;5.07;;;;;;;;;;4954352;28;20556;-80
2023/06/04 13:19:12;;;;;;;7.22;4.50;;;;;;;;;;4957456;28;20199;-81
2023/06/04 13:21:40;;;;;;;6.97;4.70;;;;;;;;;;4967092;28;20490;-80
2023/06/04 13:24:11;;;;;;;7.15;4.72;;;;;;;;;;4955360;28;20326;-78
2023/06/04 13:26:39;;;;;;;6.13;4.50;;;;;;;;;;4953874;28;20674;-78
2023/06/04 13:29:06;;;;;;;5.82;4.47;;;;;;;;;;4967970;28;20293;-80
2023/06/04 13:31:33;;;;;;;6.13;4.40;;;;;;;;;;4954072;28;20230;-79
2023/06/04 13:34:02;;;;;;;6.03;4.57;;;;;;;;;;4960182;28;20301;-75
2023/06/04 13:36:29;;;;;;;5.75;4.40;;;;;;;;;;4962026;28;20199;-79
2023/06/04 13:39:00;;;;;;;5.18;4.65;;;;;;;;;;4957174;28;20285;-78
2023/06/04 13:41:28;;;;;;;6.78;4.40;;;;;;;;;;4960724;28;20571;-78
2023/06/04 13:43:55;;;;;;;4.53;4.13;;;;;;;;;;4954665;28;20254;-78
2023/06/04 13:46:23;;;;;;;5.00;4.28;;;;;;;;;;4952926;28;20747;-77
2023/06/04 13:48:50;;;;;;;6.80;4.60;;;;;;;;;;4953489;28;20740;-77
2023/06/04 13:51:17;;;;;;;5.13;4.47;;;;;;;;;;4951643;29;20655;-78
2023/06/04 13:53:45;;;;;;;5.10;4.20;;;;;;;;;;4951605;29;20223;-78
2023/06/04 13:56:12;;;;;;;7.93;4.50;;;;;;;;;;4954127;28;20248;-78
2023/06/04 13:58:41;;;;;;;10.95;4.50;;;;;;;;;;4949967;28;20298;-78
2023/06/04 14:01:08;;;;;;;6.53;4.40;;;;;;;;;;4950132;28;20295;-78
2023/06/04 14:03:35;;;;;;;4.75;4.35;;;;;;;;;;4948983;28;20230;-78
2023/06/04 14:06:02;;;;;;;5.65;3.92;;;;;;;;;;4949745;28;20298;-79
2023/06/04 14:08:29;;;;;;;5.20;4.45;;;;;;;;;;4959588;28;20218;-80
2023/06/04 14:10:57;;;;;;;4.82;4.07;;;;;;;;;;4949032;28;20287;-79
2023/06/04 14:13:24;;;;;;;7.15;4.30;;;;;;;;;;4964360;28;20210;-79
2023/06/04 14:15:53;;;;;;;6.10;4.32;;;;;;;;;;4955280;28;20248;-76
2023/06/04 14:18:20;;;;;;;5.85;3.95;;;;;;;;;;4943836;28;20210;-76
2023/06/04 14:20:47;;;;;;;4.50;3.88;;;;;;;;;;4954545;28;20290;-78
2023/06/04 14:23:16;;;;;;;6.03;4.10;;;;;;;;;;4959154;28;20317;-76
2023/06/04 14:25:43;;;;;;;4.72;4.00;;;;;;;;;;4962131;28;20195;-77
2023/06/04 14:28:10;;;;;;;4.72;3.92;;;;;;;;;;4965392;28;20633;-79
2023/06/04 14:30:37;;;;;;;4.88;4.32;;;;;;;;;;4961072;28;20277;-76
2023/06/04 14:33:06;;;;;;;5.78;4.40;;;;;;;;;;4954319;28;20235;-78
2023/06/04 14:35:33;;;;;;;4.53;3.95;;;;;;;;;;4952881;29;20195;-78
2023/06/04 14:38:00;;;;;;;6.00;3.97;;;;;;;;;;4956057;28;20216;-77
2023/06/04 14:40:28;;;;;;;4.40;4.00;;;;;;;;;;4965381;28;20195;-79
2023/06/04 14:42:55;;;;;;;6.15;4.45;;;;;;;;;;4953158;28;20292;-78
2023/06/04 14:45:22;;;;;;;4.65;3.90;;;;;;;;;;4947642;28;20277;-78
2023/06/04 14:47:51;;;;;;;7.00;4.43;;;;;;;;;;4948542;28;20281;-78